createdAt,value
2022-09-07T00:00:00.222Z,9.8
2022-09-07T00:05:00.193Z,7.3
2022-09-07T00:10:00.219Z,5.6
2022-09-07T00:15:00.182Z,6.2
2022-09-07T00:20:00.168Z,5.9
2022-09-07T00:25:00.187Z,9.7
2022-09-07T00:30:00.215Z,4.7
2022-09-07T00:35:00.197Z,4.7
2022-09-07T00:40:00.381Z,7.6
2022-09-07T00:45:00.214Z,6.9
2022-09-07T00:50:00.191Z,4.8
2022-09-07T00:55:00.349Z,4.7
2022-09-07T01:00:00.212Z,5.0
2022-09-07T01:05:00.201Z,6.5
2022-09-07T01:10:00.205Z,4.9
2022-09-07T01:15:00.196Z,7.8
2022-09-07T01:20:00.187Z,7.2
2022-09-07T01:25:00.367Z,7.6
2022-09-07T01:30:00.220Z,5.8
2022-09-07T01:35:00.187Z,5.4
2022-09-07T01:40:00.384Z,5.9
2022-09-07T01:45:00.229Z,7.9
2022-09-07T01:50:00.200Z,5.9
2022-09-07T01:55:00.220Z,5.5
2022-09-07T02:00:00.164Z,5.8
2022-09-07T02:05:00.181Z,10.3
2022-09-07T02:10:00.179Z,7.6
2022-09-07T02:15:00.187Z,4.9
2022-09-07T02:20:00.274Z,7.6
2022-09-07T02:25:00.203Z,4.3
2022-09-07T02:30:00.174Z,7.4
2022-09-07T02:35:00.203Z,4.0
2022-09-07T02:40:00.355Z,7.3
2022-09-07T02:45:00.186Z,9.4
2022-09-07T02:50:00.229Z,7.2
2022-09-07T02:55:00.194Z,6.3
2022-09-07T03:00:00.205Z,8.4
2022-09-07T03:05:00.187Z,8.5
2022-09-07T03:10:00.204Z,8.4
2022-09-07T03:15:00.245Z,7.7
2022-09-07T03:20:00.200Z,8.0
2022-09-07T03:25:00.161Z,7.5
2022-09-07T03:30:00.249Z,8.0
2022-09-07T03:35:00.214Z,6.1
2022-09-07T03:40:00.292Z,6.1
2022-09-07T03:45:00.202Z,9.4
2022-09-07T03:50:00.215Z,6.6
2022-09-07T03:55:00.189Z,6.0
2022-09-07T04:00:00.206Z,9.8
2022-09-07T04:05:00.205Z,8.1
2022-09-07T04:10:00.212Z,5.0
2022-09-07T04:15:00.165Z,6.7
2022-09-07T04:20:00.188Z,7.1
2022-09-07T04:25:00.202Z,5.9
2022-09-07T04:30:00.195Z,10.1
2022-09-07T04:35:00.191Z,5.4
2022-09-07T04:40:00.279Z,6.2
2022-09-07T04:45:00.214Z,7.7
2022-09-07T04:50:00.200Z,8.1
2022-09-07T04:55:00.183Z,8.3
2022-09-07T05:00:00.245Z,8.3
2022-09-07T05:05:02.773Z,8.8
2022-09-07T05:10:00.191Z,12.5
2022-09-07T05:15:00.190Z,5.1
2022-09-07T05:20:00.177Z,11.6
2022-09-07T05:25:00.191Z,8.8
2022-09-07T05:35:00.197Z,7.7
2022-09-07T05:40:00.395Z,6.1
2022-09-07T05:45:00.181Z,7.8
2022-09-07T05:50:00.184Z,10.1
2022-09-07T05:55:13.402Z,6.8
2022-09-07T06:00:00.191Z,9.8
2022-09-07T06:05:00.377Z,7.8
2022-09-07T06:15:00.194Z,7.3
2022-09-07T06:20:00.215Z,13.3
2022-09-07T06:25:00.212Z,12.3
2022-09-07T06:30:00.190Z,7.2
2022-09-07T06:35:00.175Z,10.5
2022-09-07T06:40:00.341Z,12.7
2022-09-07T06:45:00.225Z,12.5
2022-09-07T06:50:00.212Z,16.1
2022-09-07T06:55:00.732Z,11.9
2022-09-07T07:00:00.193Z,15.2
2022-09-07T07:05:00.195Z,11.8
2022-09-07T07:10:00.196Z,12.2
2022-09-07T07:15:00.198Z,16.6
2022-09-07T07:20:00.240Z,13.9
2022-09-07T07:25:00.208Z,14.6
2022-09-07T07:30:00.222Z,11.9
2022-09-07T07:35:00.159Z,11.9
2022-09-07T07:40:16.836Z,16.1
2022-09-07T07:55:00.398Z,14.2
2022-09-07T08:00:00.222Z,10.5
2022-09-07T08:05:00.203Z,11.7
2022-09-07T08:10:00.178Z,15.4
2022-09-07T08:15:00.237Z,15.7
2022-09-07T08:20:00.235Z,12.3
2022-09-07T08:25:00.188Z,10.2
2022-09-07T08:30:00.226Z,9.5
2022-09-07T08:35:00.300Z,13.2
2022-09-07T08:40:00.342Z,10.7
2022-09-07T08:45:00.403Z,9.7
2022-09-07T08:50:00.179Z,12.0
2022-09-07T08:55:00.320Z,11.0
2022-09-07T09:00:00.215Z,11.3
2022-09-07T09:05:16.974Z,10.1
2022-09-07T09:10:00.243Z,11.4
2022-09-07T09:15:00.194Z,13.5
2022-09-07T09:20:00.187Z,11.8
2022-09-07T09:25:00.210Z,11.8
2022-09-07T09:30:00.193Z,12.0
2022-09-07T09:35:00.194Z,10.2
2022-09-07T09:40:02.748Z,12.6
2022-09-07T09:45:00.192Z,10.1
2022-09-07T09:50:00.185Z,15.3
2022-09-07T09:55:30.589Z,11.5
2022-09-07T10:00:02.984Z,13.3
2022-09-07T10:05:00.265Z,14.1
2022-09-07T10:10:00.196Z,12.3
2022-09-07T10:15:00.204Z,10.2
2022-09-07T10:20:00.195Z,14.2
2022-09-07T10:25:00.210Z,13.0
2022-09-07T10:30:00.173Z,13.4
2022-09-07T10:35:00.196Z,12.3
2022-09-07T10:40:00.765Z,12.9
2022-09-07T10:45:00.202Z,15.1
2022-09-07T10:50:23.402Z,16.0
2022-09-07T10:55:00.203Z,11.1
2022-09-07T11:00:07.946Z,11.5
2022-09-07T11:05:00.242Z,15.4
2022-09-07T11:10:00.220Z,13.1
2022-09-07T11:15:00.183Z,12.6
2022-09-07T11:20:00.175Z,12.2
2022-09-07T11:30:00.187Z,17.3
2022-09-07T11:35:00.200Z,13.6
2022-09-07T11:40:00.343Z,12.5
2022-09-07T11:45:00.202Z,14.2
2022-09-07T11:50:00.194Z,13.9
2022-09-07T11:55:00.203Z,11.5
2022-09-07T12:00:00.259Z,11.2
2022-09-07T12:05:00.270Z,12.2
2022-09-07T12:10:00.210Z,9.7
2022-09-07T12:15:00.161Z,13.9
2022-09-07T12:20:00.213Z,11.9
2022-09-07T12:25:00.189Z,11.1
2022-09-07T12:30:00.217Z,8.4
2022-09-07T12:35:00.225Z,9.8
2022-09-07T12:40:00.361Z,10.5
2022-09-07T12:45:00.243Z,9.0
2022-09-07T12:50:00.186Z,8.8
2022-09-07T12:55:26.227Z,8.7
2022-09-07T13:00:00.203Z,9.4
2022-09-07T13:05:00.201Z,7.1
2022-09-07T13:10:00.204Z,9.7
2022-09-07T13:15:00.207Z,10.5
2022-09-07T13:20:01.195Z,9.1
2022-09-07T13:25:00.207Z,9.5
2022-09-07T13:30:00.356Z,9.7
2022-09-07T13:35:00.219Z,9.3
2022-09-07T13:40:00.336Z,9.9
2022-09-07T13:45:00.215Z,9.7
2022-09-07T13:50:00.219Z,10.5
2022-09-07T13:55:00.207Z,10.8
2022-09-07T14:00:00.247Z,10.6
2022-09-07T14:05:00.221Z,9.7
2022-09-07T14:10:00.178Z,10.3
2022-09-07T14:15:00.214Z,10.5
2022-09-07T14:20:00.251Z,10.0
2022-09-07T14:25:00.262Z,12.4
2022-09-07T14:30:00.224Z,10.7
2022-09-07T14:35:00.212Z,8.9
2022-09-07T14:40:00.294Z,12.1
2022-09-07T14:45:00.195Z,8.9
2022-09-07T14:50:00.384Z,11.5
2022-09-07T14:55:00.212Z,11.6
2022-09-07T15:00:00.208Z,11.1
2022-09-07T15:05:00.480Z,11.0
2022-09-07T15:10:00.235Z,11.7
2022-09-07T15:15:00.167Z,12.1
2022-09-07T15:20:00.521Z,8.8
2022-09-07T15:25:00.175Z,9.6
2022-09-07T15:30:00.221Z,9.0
2022-09-07T15:35:00.190Z,29.8
2022-09-07T15:40:01.617Z,20.4
2022-09-07T15:45:01.755Z,14.3
2022-09-07T15:50:00.233Z,15.6
2022-09-07T15:55:00.161Z,14.2
2022-09-07T16:00:00.211Z,13.0
2022-09-07T16:05:00.380Z,13.1
2022-09-07T16:10:02.423Z,13.2
2022-09-07T16:15:00.244Z,13.8
2022-09-07T16:20:02.185Z,13.6
2022-09-07T16:25:00.197Z,11.8
2022-09-07T16:30:00.211Z,15.1
2022-09-07T16:35:00.188Z,12.0
2022-09-07T16:40:00.347Z,13.0
2022-09-07T16:50:00.218Z,10.1
2022-09-07T16:55:00.174Z,11.7
2022-09-07T17:00:00.212Z,17.1
2022-09-07T17:05:00.165Z,14.6
2022-09-07T17:10:00.222Z,12.3
2022-09-07T17:15:00.206Z,9.2
2022-09-07T17:20:00.217Z,13.6
2022-09-07T17:25:00.167Z,9.9
2022-09-07T17:30:00.357Z,10.8
2022-09-07T17:35:00.179Z,11.4
2022-09-07T17:40:00.315Z,12.0
2022-09-07T17:45:00.214Z,10.2
2022-09-07T17:50:00.217Z,10.2
2022-09-07T17:55:00.219Z,12.2
2022-09-07T18:00:12.984Z,14.2
2022-09-07T18:05:00.369Z,11.0
2022-09-07T18:10:00.223Z,13.7
2022-09-07T18:15:00.365Z,13.2
2022-09-07T18:20:00.206Z,12.2
2022-09-07T18:25:00.184Z,12.3
2022-09-07T18:30:00.245Z,11.4
2022-09-07T18:35:00.187Z,11.9
2022-09-07T18:40:00.308Z,11.5
2022-09-07T18:45:28.366Z,18.7
2022-09-07T18:50:00.203Z,15.8
2022-09-07T18:55:00.195Z,14.5
2022-09-07T19:00:00.198Z,14.7
2022-09-07T19:10:00.239Z,14.1
2022-09-07T19:15:00.248Z,13.8
2022-09-07T19:20:00.226Z,14.1
2022-09-07T19:25:00.206Z,15.2
2022-09-07T19:30:00.214Z,13.1
2022-09-07T19:35:00.206Z,15.7
2022-09-07T19:40:00.298Z,14.8
2022-09-07T19:45:00.210Z,20.7
2022-09-07T19:50:00.207Z,14.9
2022-09-07T19:55:00.176Z,14.6
2022-09-07T20:00:00.252Z,18.5
2022-09-07T20:05:00.161Z,16.9
2022-09-07T20:10:00.228Z,17.6
2022-09-07T20:15:00.223Z,14.8
2022-09-07T20:20:00.181Z,19.6
2022-09-07T20:25:00.199Z,15.6
2022-09-07T20:30:00.213Z,16.1
2022-09-07T20:35:00.200Z,17.4
2022-09-07T20:40:00.253Z,15.9
2022-09-07T20:45:00.205Z,15.0
2022-09-07T20:50:00.198Z,16.0
2022-09-07T20:55:00.219Z,18.8
2022-09-07T21:00:00.173Z,16.6
2022-09-07T21:05:00.334Z,17.3
2022-09-07T21:10:03.452Z,16.1
2022-09-07T21:15:00.191Z,17.3
2022-09-07T21:20:00.213Z,17.1
2022-09-07T21:25:00.203Z,16.8
2022-09-07T21:30:00.189Z,17.2
2022-09-07T21:35:00.197Z,16.4
2022-09-07T21:40:00.260Z,17.5
2022-09-07T21:45:00.201Z,17.6
2022-09-07T21:50:00.223Z,17.5
2022-09-07T21:55:00.172Z,16.4
2022-09-07T22:00:00.235Z,16.7
2022-09-07T22:05:00.175Z,16.1
2022-09-07T22:10:00.196Z,19.6
2022-09-07T22:15:00.167Z,16.0
2022-09-07T22:20:00.180Z,22.7
2022-09-07T22:25:00.191Z,16.0
2022-09-07T22:30:00.209Z,16.9
2022-09-07T22:35:00.181Z,18.4
2022-09-07T22:40:00.410Z,16.1
2022-09-07T22:45:00.194Z,16.7
2022-09-07T22:50:00.218Z,17.7
2022-09-07T22:55:00.222Z,21.9
2022-09-07T23:00:00.363Z,17.8
2022-09-07T23:05:00.256Z,19.4
2022-09-07T23:10:00.285Z,19.2
2022-09-07T23:15:00.385Z,17.5
2022-09-07T23:20:00.238Z,17.8
2022-09-07T23:25:00.230Z,17.7
2022-09-07T23:30:00.269Z,17.4
2022-09-07T23:35:00.230Z,18.1
2022-09-07T23:40:00.385Z,18.4
2022-09-07T23:45:00.237Z,18.1
2022-09-07T23:50:00.213Z,16.9
2022-09-07T23:55:00.233Z,16.8
